createdAt,value
2023-05-13T00:02:02.399Z,8.77
2023-05-13T00:04:29.508Z,8.13
2023-05-13T00:06:56.571Z,8.03
2023-05-13T00:09:23.582Z,7.23
2023-05-13T00:11:50.779Z,7.23
2023-05-13T00:14:17.789Z,7.03
2023-05-13T00:16:44.995Z,7.23
2023-05-13T00:19:12.447Z,8.13
2023-05-13T00:21:39.779Z,6.57
2023-05-13T00:24:07.637Z,6.90
2023-05-13T00:26:34.722Z,6.70
2023-05-13T00:29:01.893Z,6.77
2023-05-13T00:31:29.230Z,6.63
2023-05-13T00:33:56.342Z,7.50
2023-05-13T00:36:23.964Z,7.20
2023-05-13T00:38:50.987Z,6.73
2023-05-13T00:41:18.710Z,7.53
2023-05-13T00:43:45.810Z,7.00
2023-05-13T00:46:13.710Z,6.77
2023-05-13T00:48:40.931Z,7.57
2023-05-13T00:51:08.384Z,7.10
2023-05-13T00:53:36.408Z,6.97
2023-05-13T00:56:03.531Z,7.00
2023-05-13T00:58:30.670Z,8.47
2023-05-13T01:01:16.567Z,7.60
2023-05-13T01:04:05.266Z,7.43
2023-05-13T01:06:56.974Z,6.60
2023-05-13T01:09:26.791Z,7.03
2023-05-13T01:11:56.296Z,6.80
2023-05-13T01:14:29.424Z,6.67
2023-05-13T01:17:02.565Z,7.90
2023-05-13T01:19:44.723Z,6.80
2023-05-13T01:22:11.863Z,6.93
2023-05-13T01:24:38.943Z,7.57
2023-05-13T01:27:06.613Z,6.30
2023-05-13T01:29:33.800Z,8.60
2023-05-13T01:32:03.437Z,7.40
2023-05-13T01:34:32.128Z,7.23
2023-05-13T01:37:00.217Z,8.37
2023-05-13T01:39:29.815Z,7.97
2023-05-13T01:42:00.368Z,6.47
2023-05-13T01:44:28.007Z,8.80
2023-05-13T01:46:55.628Z,7.77
2023-05-13T01:49:23.021Z,7.10
2023-05-13T01:51:50.089Z,8.67
2023-05-13T01:54:17.173Z,8.03
2023-05-13T01:56:49.549Z,7.07
2023-05-13T01:59:16.655Z,8.27
2023-05-13T02:01:45.078Z,7.77
2023-05-13T02:04:12.203Z,7.23
2023-05-13T02:06:41.897Z,7.17
2023-05-13T02:09:09.677Z,7.03
2023-05-13T02:11:40.050Z,7.10
2023-05-13T02:14:07.215Z,7.33
2023-05-13T02:16:35.261Z,6.37
2023-05-13T02:19:06.175Z,7.63
2023-05-13T02:21:33.469Z,7.43
2023-05-13T02:24:00.560Z,7.70
2023-05-13T02:26:29.148Z,7.80
2023-05-13T02:28:56.216Z,7.20
2023-05-13T02:31:23.335Z,7.23
2023-05-13T02:33:50.499Z,7.03
2023-05-13T02:36:18.046Z,7.77
2023-05-13T02:38:45.673Z,7.37
2023-05-13T02:41:15.671Z,8.30
2023-05-13T02:43:42.921Z,7.43
2023-05-13T02:46:10.092Z,7.60
2023-05-13T02:48:37.190Z,7.70
2023-05-13T02:51:04.261Z,7.70
2023-05-13T02:53:31.501Z,7.17
2023-05-13T02:56:03.592Z,6.97
2023-05-13T02:58:30.767Z,7.20
2023-05-13T03:00:59.165Z,10.27
2023-05-13T03:03:26.765Z,7.70
2023-05-13T03:05:53.883Z,7.20
2023-05-13T03:08:21.264Z,6.90
2023-05-13T03:10:48.331Z,8.10
2023-05-13T03:13:15.554Z,7.47
2023-05-13T03:15:44.357Z,7.83
2023-05-13T03:18:12.357Z,6.53
2023-05-13T03:20:39.858Z,7.97
2023-05-13T03:23:08.159Z,7.63
2023-05-13T03:25:35.866Z,8.00
2023-05-13T03:28:04.288Z,6.90
2023-05-13T03:30:36.436Z,7.13
2023-05-13T03:33:07.698Z,8.93
2023-05-13T03:35:34.762Z,9.47
2023-05-13T03:38:02.475Z,7.40
2023-05-13T03:40:30.692Z,8.53
2023-05-13T03:42:57.811Z,8.73
2023-05-13T03:45:25.057Z,7.50
2023-05-13T03:47:56.837Z,7.47
2023-05-13T03:50:25.191Z,7.43
2023-05-13T03:52:53.004Z,6.70
2023-05-13T03:55:21.851Z,7.30
2023-05-13T03:57:49.742Z,8.90
2023-05-13T04:00:19.827Z,7.50
2023-05-13T04:02:48.685Z,8.03
2023-05-13T04:05:16.003Z,7.57
2023-05-13T04:07:43.163Z,8.10
2023-05-13T04:10:13.799Z,7.60
2023-05-13T04:12:42.483Z,7.43
2023-05-13T04:15:09.949Z,7.67
2023-05-13T04:17:37.068Z,8.23
2023-05-13T04:20:04.434Z,9.87
2023-05-13T04:22:31.541Z,7.03
2023-05-13T04:24:58.634Z,7.10
2023-05-13T04:27:25.767Z,9.70
2023-05-13T04:30:02.930Z,7.77
2023-05-13T04:32:32.912Z,9.33
2023-05-13T04:35:00.603Z,8.47
2023-05-13T04:37:29.996Z,8.57
2023-05-13T04:40:00.839Z,9.03
2023-05-13T04:42:28.487Z,9.80
2023-05-13T04:44:55.618Z,7.17
2023-05-13T04:47:23.103Z,7.60
2023-05-13T04:49:50.108Z,8.13
2023-05-13T04:52:17.942Z,7.90
2023-05-13T04:54:45.091Z,8.53
2023-05-13T04:57:12.290Z,7.87
2023-05-13T04:59:39.472Z,7.63
2023-05-13T05:02:08.283Z,8.60
2023-05-13T05:04:35.799Z,6.90
2023-05-13T05:07:06.949Z,8.10
2023-05-13T05:09:34.189Z,7.90
2023-05-13T05:12:01.283Z,6.93
2023-05-13T05:14:33.943Z,8.37
2023-05-13T05:17:01.011Z,7.70
2023-05-13T05:19:28.186Z,9.57
2023-05-13T05:21:56.324Z,8.77
2023-05-13T05:24:23.787Z,8.67
2023-05-13T05:26:50.885Z,8.80
2023-05-13T05:29:18.064Z,7.47
2023-05-13T05:31:45.647Z,8.40
2023-05-13T05:34:12.766Z,8.90
2023-05-13T05:36:40.134Z,8.00
2023-05-13T05:39:07.148Z,8.07
2023-05-13T05:41:36.677Z,6.80
2023-05-13T05:44:03.797Z,8.50
2023-05-13T05:46:32.370Z,7.57
2023-05-13T05:49:03.577Z,7.27
2023-05-13T05:51:33.548Z,7.97
2023-05-13T05:54:02.597Z,7.93
2023-05-13T05:56:29.964Z,7.73
2023-05-13T05:58:57.083Z,8.27
2023-05-13T06:01:24.226Z,8.23
2023-05-13T06:03:53.129Z,7.70
2023-05-13T06:06:22.213Z,8.50
2023-05-13T06:08:49.234Z,9.50
2023-05-13T06:11:16.470Z,8.50
2023-05-13T06:13:44.151Z,7.83
2023-05-13T06:16:11.233Z,8.00
2023-05-13T06:18:41.359Z,8.40
2023-05-13T06:21:08.726Z,8.60
2023-05-13T06:23:36.015Z,7.90
2023-05-13T06:26:03.078Z,7.60
2023-05-13T06:28:30.126Z,9.10
2023-05-13T06:30:57.541Z,7.60
2023-05-13T06:33:24.849Z,8.07
2023-05-13T06:35:53.479Z,7.50
2023-05-13T06:38:22.361Z,8.60
2023-05-13T06:40:52.662Z,8.23
2023-05-13T06:43:26.228Z,8.40
2023-05-13T06:45:57.830Z,8.77
2023-05-13T06:48:27.027Z,7.77
2023-05-13T06:50:54.098Z,8.80
2023-05-13T06:53:21.241Z,8.60
2023-05-13T06:55:50.457Z,9.53
2023-05-13T06:58:17.789Z,8.77
2023-05-13T07:00:46.905Z,8.57
2023-05-13T07:03:14.058Z,7.47
2023-05-13T07:05:41.192Z,8.53
2023-05-13T07:08:08.800Z,9.03
2023-05-13T07:10:37.060Z,10.23
2023-05-13T07:13:04.797Z,8.70
2023-05-13T07:15:31.865Z,8.57
2023-05-13T07:17:58.997Z,8.80
2023-05-13T07:20:26.623Z,9.27
2023-05-13T07:22:53.864Z,8.80
2023-05-13T07:25:21.099Z,8.47
2023-05-13T07:27:48.483Z,8.67
2023-05-13T07:30:15.772Z,9.20
2023-05-13T07:32:42.878Z,8.07
2023-05-13T07:35:10.619Z,9.70
2023-05-13T07:37:37.632Z,7.97
2023-05-13T07:40:08.173Z,7.70
2023-05-13T07:42:35.465Z,7.63
2023-05-13T07:45:02.724Z,8.10
2023-05-13T07:47:31.489Z,8.60
2023-05-13T07:49:58.545Z,7.93
2023-05-13T07:52:26.428Z,8.43
2023-05-13T07:54:54.707Z,7.17
2023-05-13T07:57:21.748Z,7.83
2023-05-13T07:59:48.852Z,8.50
2023-05-13T08:02:15.907Z,7.70
2023-05-13T08:04:43.019Z,8.80
2023-05-13T08:07:11.790Z,7.40
2023-05-13T08:09:38.972Z,7.70
2023-05-13T08:12:06.536Z,7.20
2023-05-13T08:14:33.590Z,7.20
2023-05-13T08:17:01.126Z,8.93
2023-05-13T08:19:28.250Z,8.30
2023-05-13T08:21:55.476Z,7.87
2023-05-13T08:24:22.476Z,10.37
2023-05-13T08:26:49.548Z,7.27
2023-05-13T08:29:16.588Z,9.30
2023-05-13T08:31:43.721Z,9.83
2023-05-13T08:34:11.144Z,9.70
2023-05-13T08:36:38.206Z,8.27
2023-05-13T08:39:05.378Z,11.13
2023-05-13T08:41:34.140Z,8.07
2023-05-13T08:44:06.851Z,10.93
2023-05-13T08:46:35.077Z,11.67
2023-05-13T08:49:02.697Z,9.77
2023-05-13T08:51:30.084Z,7.97
2023-05-13T08:53:57.174Z,9.03
2023-05-13T08:56:28.411Z,9.87
2023-05-13T08:58:55.563Z,10.27
2023-05-13T09:01:24.156Z,10.10
2023-05-13T09:04:04.545Z,9.10
2023-05-13T09:06:32.370Z,18.60
2023-05-13T09:08:59.578Z,10.57
2023-05-13T09:11:26.936Z,14.67
2023-05-13T09:13:58.859Z,11.47
2023-05-13T09:16:28.911Z,10.90
2023-05-13T09:19:05.026Z,8.50
2023-05-13T09:21:36.086Z,13.37
2023-05-13T09:24:11.968Z,20.33
2023-05-13T09:26:40.973Z,11.40
2023-05-13T09:29:21.894Z,9.60
2023-05-13T09:31:54.742Z,9.00
2023-05-13T09:34:33.428Z,9.20
2023-05-13T09:37:05.480Z,9.97
2023-05-13T09:39:41.548Z,9.73
2023-05-13T09:42:16.848Z,8.07
2023-05-13T09:44:45.525Z,7.80
2023-05-13T09:47:17.077Z,8.37
2023-05-13T09:49:45.752Z,7.63
2023-05-13T09:52:17.204Z,8.70
2023-05-13T09:54:44.740Z,8.27
2023-05-13T09:57:13.738Z,7.90
2023-05-13T09:59:41.416Z,9.20
2023-05-13T10:02:09.068Z,7.80
2023-05-13T10:04:37.612Z,7.30
2023-05-13T10:07:05.883Z,7.30
2023-05-13T10:09:36.628Z,8.00
2023-05-13T10:12:06.830Z,7.20
2023-05-13T10:14:34.777Z,6.90
2023-05-13T10:17:02.940Z,7.30
2023-05-13T10:19:32.224Z,6.60
2023-05-13T10:22:00.452Z,6.77
2023-05-13T10:24:29.064Z,6.87
2023-05-13T10:26:57.778Z,6.77
2023-05-13T10:29:26.600Z,7.10
2023-05-13T10:31:55.607Z,7.10
2023-05-13T10:34:23.856Z,6.63
2023-05-13T10:37:10.215Z,6.37
2023-05-13T10:40:18.107Z,7.00
2023-05-13T10:43:09.674Z,7.30
2023-05-13T10:45:38.153Z,6.17
2023-05-13T10:48:12.341Z,6.43
2023-05-13T10:50:40.027Z,6.20
2023-05-13T10:53:18.670Z,6.23
2023-05-13T10:55:46.398Z,7.20
2023-05-13T10:58:15.163Z,7.03
2023-05-13T11:00:46.083Z,8.17
2023-05-13T11:03:15.769Z,8.57
2023-05-13T11:06:33.034Z,8.30
2023-05-13T11:09:00.282Z,7.57
2023-05-13T11:11:33.303Z,7.27
2023-05-13T11:14:00.393Z,8.80
2023-05-13T11:16:27.605Z,7.33
2023-05-13T11:18:54.931Z,6.40
2023-05-13T11:21:39.800Z,7.97
2023-05-13T11:24:08.139Z,7.10
2023-05-13T11:26:45.819Z,5.60
2023-05-13T11:29:13.886Z,6.77
2023-05-13T11:31:50.230Z,6.90
2023-05-13T11:34:18.656Z,6.17
2023-05-13T11:36:49.925Z,5.73
2023-05-13T11:39:21.597Z,6.43
2023-05-13T11:41:52.769Z,6.27
2023-05-13T11:44:25.379Z,5.70
2023-05-13T11:46:57.729Z,5.40
2023-05-13T11:49:30.812Z,5.07
2023-05-13T11:52:00.004Z,6.20
2023-05-13T11:54:27.549Z,6.47
2023-05-13T11:56:54.580Z,6.97
2023-05-13T11:59:22.656Z,7.13
2023-05-13T12:02:00.659Z,6.90
2023-05-13T12:04:29.613Z,5.93
2023-05-13T12:06:57.454Z,6.17
2023-05-13T12:09:25.106Z,5.67
2023-05-13T12:11:52.854Z,6.13
2023-05-13T12:14:23.303Z,6.50
2023-05-13T12:16:51.670Z,7.03
2023-05-13T12:19:20.095Z,6.50
2023-05-13T12:21:49.694Z,6.10
2023-05-13T12:24:21.020Z,5.93
2023-05-13T12:26:48.430Z,4.83
2023-05-13T12:29:15.947Z,6.03
2023-05-13T12:31:44.231Z,4.80
2023-05-13T12:34:11.351Z,4.97
2023-05-13T12:36:39.883Z,5.87
2023-05-13T12:39:11.677Z,6.00
2023-05-13T12:41:40.570Z,5.37
2023-05-13T12:44:16.271Z,5.23
2023-05-13T12:46:54.256Z,9.03
2023-05-13T12:49:22.330Z,5.83
2023-05-13T12:51:51.690Z,5.17
2023-05-13T12:54:19.027Z,5.63
2023-05-13T12:56:46.253Z,5.70
2023-05-13T12:59:14.466Z,4.73
2023-05-13T13:01:43.013Z,5.40
2023-05-13T13:04:10.560Z,5.87
2023-05-13T13:06:37.850Z,6.03
2023-05-13T13:09:06.027Z,6.00
2023-05-13T13:11:33.204Z,5.83
2023-05-13T13:14:00.327Z,5.67
2023-05-13T13:16:27.606Z,5.97
2023-05-13T13:18:58.951Z,7.23
2023-05-13T13:21:26.997Z,5.90
2023-05-13T13:23:54.094Z,6.20
2023-05-13T13:26:23.179Z,5.80
2023-05-13T13:28:50.276Z,6.17
2023-05-13T13:31:17.391Z,6.07
2023-05-13T13:33:44.693Z,5.67
2023-05-13T13:36:11.865Z,5.30
2023-05-13T13:38:38.906Z,5.30
2023-05-13T13:41:06.289Z,5.80
2023-05-13T13:43:33.328Z,5.40
2023-05-13T13:46:00.534Z,5.77
2023-05-13T13:48:27.630Z,6.20
2023-05-13T13:50:55.129Z,6.03
2023-05-13T13:53:22.452Z,5.60
2023-05-13T13:55:49.508Z,6.83
2023-05-13T13:58:16.568Z,5.33
2023-05-13T14:00:43.648Z,6.10
2023-05-13T14:03:10.879Z,5.20
2023-05-13T14:05:38.054Z,6.15
2023-05-13T14:08:05.401Z,6.00
2023-05-13T14:10:32.624Z,5.57
2023-05-13T14:12:59.800Z,5.72
2023-05-13T14:16:07.056Z,6.53
2023-05-13T14:18:34.188Z,5.90
2023-05-13T14:21:01.200Z,6.57
2023-05-13T14:23:28.215Z,6.47
2023-05-13T14:25:55.248Z,6.45
2023-05-13T14:28:24.411Z,6.47
2023-05-13T14:30:52.132Z,6.63
2023-05-13T14:33:19.184Z,6.40
2023-05-13T14:35:46.262Z,6.68
2023-05-13T14:38:13.343Z,6.75
2023-05-13T14:40:40.379Z,6.60
2023-05-13T14:43:07.455Z,7.63
2023-05-13T14:45:35.896Z,5.85
2023-05-13T14:48:03.399Z,6.88
2023-05-13T14:50:30.499Z,7.40
2023-05-13T14:52:57.682Z,6.28
2023-05-13T14:55:24.778Z,6.18
2023-05-13T14:57:52.002Z,5.80
2023-05-13T15:00:19.268Z,7.53
2023-05-13T15:02:46.566Z,6.70
2023-05-13T15:05:13.799Z,6.40
2023-05-13T15:07:41.380Z,7.15
2023-05-13T15:10:08.953Z,6.22
2023-05-13T15:12:36.087Z,5.75
2023-05-13T15:15:04.868Z,6.43
2023-05-13T15:17:32.043Z,7.28
2023-05-13T15:19:59.130Z,7.80
2023-05-13T15:22:26.196Z,6.93
2023-05-13T15:24:53.279Z,6.50
2023-05-13T15:27:20.644Z,6.82
2023-05-13T15:29:48.733Z,7.15
2023-05-13T15:32:15.798Z,7.10
2023-05-13T15:34:43.549Z,6.95
2023-05-13T15:37:10.617Z,7.88
2023-05-13T15:39:37.716Z,6.90
2023-05-13T15:42:04.936Z,6.88
2023-05-13T15:44:31.963Z,7.20
2023-05-13T15:46:59.178Z,7.57
2023-05-13T15:49:27.403Z,7.22
2023-05-13T15:51:56.109Z,8.25
2023-05-13T15:54:23.205Z,7.25
2023-05-13T15:56:50.327Z,8.48
2023-05-13T15:59:17.621Z,7.75
2023-05-13T16:01:44.881Z,8.57
2023-05-13T16:04:11.945Z,9.57
2023-05-13T16:06:39.197Z,8.13
2023-05-13T16:09:06.479Z,8.32
2023-05-13T16:11:33.622Z,9.25
2023-05-13T16:14:00.842Z,8.98
2023-05-13T16:16:27.994Z,8.10
2023-05-13T16:18:55.160Z,9.25
2023-05-13T16:21:22.315Z,8.00
2023-05-13T16:23:51.056Z,9.77
2023-05-13T16:26:18.361Z,8.23
2023-05-13T16:28:45.437Z,8.30
2023-05-13T16:31:12.572Z,7.78
2023-05-13T16:33:39.687Z,8.73
2023-05-13T16:36:09.744Z,9.05
2023-05-13T16:38:36.800Z,9.65
2023-05-13T16:41:03.949Z,9.55
2023-05-13T16:43:31.011Z,10.82
2023-05-13T16:45:58.181Z,8.32
2023-05-13T16:48:25.342Z,9.45
2023-05-13T16:50:52.435Z,11.38
2023-05-13T16:53:22.301Z,9.98
2023-05-13T16:55:50.239Z,9.50
2023-05-13T16:58:17.782Z,8.82
2023-05-13T17:00:44.850Z,8.90
2023-05-13T17:03:13.480Z,9.37
2023-05-13T17:05:40.770Z,8.88
2023-05-13T17:08:07.896Z,8.95
2023-05-13T17:10:34.933Z,8.55
2023-05-13T17:13:02.120Z,11.77
2023-05-13T17:15:29.218Z,10.17
2023-05-13T17:17:56.392Z,9.80
2023-05-13T17:20:23.713Z,9.07
2023-05-13T17:22:50.997Z,10.48
2023-05-13T17:25:22.687Z,10.13
2023-05-13T17:27:49.742Z,10.27
2023-05-13T17:30:17.242Z,10.75
2023-05-13T17:32:44.690Z,9.30
2023-05-13T17:35:11.787Z,8.97
2023-05-13T17:37:38.928Z,8.93
2023-05-13T17:40:06.684Z,8.90
2023-05-13T17:42:33.804Z,9.70
2023-05-13T17:45:02.076Z,8.80
2023-05-13T17:47:29.616Z,9.13
2023-05-13T17:49:56.858Z,9.60
2023-05-13T17:52:23.945Z,9.95
2023-05-13T17:54:51.051Z,8.87
2023-05-13T17:57:18.154Z,10.07
2023-05-13T17:59:45.276Z,11.77
2023-05-13T18:02:12.431Z,8.93
2023-05-13T18:04:39.612Z,9.82
2023-05-13T18:07:06.619Z,10.73
2023-05-13T18:09:33.761Z,9.00
2023-05-13T18:12:00.872Z,9.90
2023-05-13T18:14:32.323Z,9.30
2023-05-13T18:17:00.187Z,8.77
2023-05-13T18:19:27.813Z,10.53
2023-05-13T18:21:54.956Z,8.87
2023-05-13T18:24:22.240Z,9.57
2023-05-13T18:26:49.404Z,10.63
2023-05-13T18:29:16.506Z,9.43
2023-05-13T18:31:43.639Z,9.80
2023-05-13T18:34:10.853Z,8.83
2023-05-13T18:36:38.025Z,8.63
2023-05-13T18:39:05.250Z,8.50
2023-05-13T18:41:32.402Z,9.13
2023-05-13T18:43:59.471Z,9.33
2023-05-13T18:46:26.544Z,8.67
2023-05-13T18:48:53.742Z,10.83
2023-05-13T18:51:21.132Z,8.10
2023-05-13T18:53:48.187Z,9.17
2023-05-13T18:56:15.232Z,9.63
2023-05-13T18:58:42.307Z,9.10
2023-05-13T19:01:09.473Z,10.00
2023-05-13T19:03:37.114Z,8.47
2023-05-13T19:06:04.724Z,8.63
2023-05-13T19:08:31.864Z,10.93
2023-05-13T19:10:58.986Z,9.20
2023-05-13T19:13:33.098Z,8.20
2023-05-13T19:16:06.885Z,8.40
2023-05-13T19:18:34.648Z,8.80
2023-05-13T19:21:01.786Z,9.60
2023-05-13T19:23:28.854Z,8.33
2023-05-13T19:25:55.956Z,9.37
2023-05-13T19:28:23.856Z,9.20
2023-05-13T19:30:50.932Z,12.30
2023-05-13T19:33:18.116Z,8.70
2023-05-13T19:35:45.521Z,8.33
2023-05-13T19:38:12.682Z,10.90
2023-05-13T19:40:39.708Z,9.00
2023-05-13T19:43:06.825Z,9.43
2023-05-13T19:45:34.378Z,10.57
2023-05-13T19:48:01.479Z,8.73
2023-05-13T19:50:28.526Z,8.77
2023-05-13T19:52:56.085Z,8.43
2023-05-13T19:55:23.334Z,12.37
2023-05-13T19:57:50.631Z,8.83
2023-05-13T20:00:17.970Z,8.87
2023-05-13T20:02:45.193Z,8.80
2023-05-13T20:05:12.375Z,8.87
2023-05-13T20:07:39.409Z,8.80
2023-05-13T20:10:07.310Z,8.93
2023-05-13T20:12:34.444Z,9.23
2023-05-13T20:15:02.014Z,10.00
2023-05-13T20:17:30.198Z,9.20
2023-05-13T20:19:57.446Z,9.60
2023-05-13T20:22:24.486Z,9.03
2023-05-13T20:24:52.259Z,10.03
2023-05-13T20:27:19.326Z,8.57
2023-05-13T20:29:48.034Z,9.23
2023-05-13T20:32:18.487Z,9.17
2023-05-13T20:34:45.554Z,9.53
2023-05-13T20:37:12.605Z,9.03
2023-05-13T20:39:39.616Z,8.03
2023-05-13T20:42:06.783Z,8.20
2023-05-13T20:44:33.811Z,10.73
2023-05-13T20:47:01.045Z,10.10
2023-05-13T20:49:28.254Z,9.37
2023-05-13T20:51:55.496Z,9.73
2023-05-13T20:54:22.711Z,8.70
2023-05-13T20:56:49.738Z,9.47
2023-05-13T20:59:16.796Z,9.73
2023-05-13T21:01:47.472Z,9.27
2023-05-13T21:04:14.784Z,10.33
2023-05-13T21:06:42.132Z,10.63
2023-05-13T21:09:09.254Z,9.03
2023-05-13T21:11:36.520Z,10.33
2023-05-13T21:14:03.717Z,8.83
2023-05-13T21:16:31.141Z,10.13
2023-05-13T21:18:58.632Z,10.13
2023-05-13T21:21:25.764Z,9.97
2023-05-13T21:23:52.835Z,8.70
2023-05-13T21:26:22.007Z,8.90
2023-05-13T21:28:49.119Z,8.97
2023-05-13T21:31:16.169Z,11.93
2023-05-13T21:33:43.285Z,11.57
2023-05-13T21:36:10.345Z,11.17
2023-05-13T21:38:37.402Z,10.57
2023-05-13T21:41:04.518Z,9.90
2023-05-13T21:43:31.558Z,9.10
2023-05-13T21:45:58.674Z,9.53
2023-05-13T21:48:25.982Z,8.83
2023-05-13T21:50:53.116Z,10.00
2023-05-13T21:53:20.232Z,8.80
2023-05-13T21:55:47.309Z,9.20
2023-05-13T21:58:14.605Z,11.37
2023-05-13T22:00:41.895Z,9.63
2023-05-13T22:03:09.027Z,10.63
2023-05-13T22:05:42.316Z,9.50
2023-05-13T22:08:12.910Z,9.23
2023-05-13T22:10:40.129Z,9.97
2023-05-13T22:13:07.286Z,8.70
2023-05-13T22:15:34.426Z,8.80
2023-05-13T22:18:01.517Z,10.00
2023-05-13T22:20:28.625Z,9.93
2023-05-13T22:22:55.658Z,9.70
2023-05-13T22:25:22.811Z,10.60
2023-05-13T22:27:51.260Z,11.10
2023-05-13T22:30:18.591Z,10.57
2023-05-13T22:32:45.842Z,10.63
2023-05-13T22:35:12.982Z,14.23
2023-05-13T22:37:40.049Z,11.93
2023-05-13T22:40:07.815Z,14.13
2023-05-13T22:42:34.907Z,11.93
2023-05-13T22:45:02.046Z,10.70
2023-05-13T22:47:29.111Z,11.73
2023-05-13T22:49:56.141Z,12.27
2023-05-13T22:52:23.173Z,20.07
2023-05-13T22:54:50.339Z,24.83
2023-05-13T22:57:17.400Z,14.90
2023-05-13T22:59:44.503Z,13.23
2023-05-13T23:02:11.692Z,11.70
2023-05-13T23:04:38.958Z,11.57
2023-05-13T23:07:06.022Z,10.90
2023-05-13T23:09:33.068Z,10.60
2023-05-13T23:12:00.143Z,10.63
2023-05-13T23:14:30.084Z,11.07
2023-05-13T23:16:57.249Z,10.27
2023-05-13T23:19:27.294Z,10.43
2023-05-13T23:21:54.390Z,11.97
2023-05-13T23:24:21.584Z,10.23
2023-05-13T23:26:49.338Z,9.70
2023-05-13T23:29:16.804Z,10.83
2023-05-13T23:31:43.988Z,9.73
2023-05-13T23:34:11.013Z,10.03
2023-05-13T23:36:38.160Z,9.40
2023-05-13T23:39:05.515Z,9.53
2023-05-13T23:41:34.956Z,10.77
2023-05-13T23:44:02.241Z,9.50
2023-05-13T23:46:29.301Z,9.40
2023-05-13T23:48:56.330Z,10.67
2023-05-13T23:51:23.563Z,9.60
2023-05-13T23:53:50.840Z,9.13
2023-05-13T23:56:17.893Z,9.67
2023-05-13T23:58:44.918Z,10.00
